Stroudsburg, Pennsylvania
Current Conditions -  °F | °C
As of 2:02 PM on Tuesday 27 Jan 2015 (Local Time) from KMPO Reporting Station
Light Snow Light Snow  
Wind Chill:   Ceiling: 4000
Heat Index: 20°   Visibility: 1.5mi
Dew Point:   Wind: 17mph
Humidity: 62%   Direction: 330°NNW
Pressure: 29.61"   Gusts: 30mph
Location:  40.99°N, 75.19°W
Report Text: KMPO 271902Z AUTO 33015G26KT 1 1/2SM -SN BKN040 OVC050 M07/M13 A2961 RMK AO2 PK WND 31026/1856 P0000 T10671128
Loading
Personal Weather Stations






























Interactive Weather Map New forecast layout! Learn more

10-Day Weather Forecast

Advertisements
Track Severe Weather on mobile